sensor_id;sensor_type;location;lat;lon;timestamp;temperature;humidity
36424;DHT22;22458;45.328;9.514;2022-12-29T00:02:18;11.80;93.90
36424;DHT22;22458;45.328;9.514;2022-12-29T00:04:44;11.70;94.00
36424;DHT22;22458;45.328;9.514;2022-12-29T00:07:10;11.70;94.20
36424;DHT22;22458;45.328;9.514;2022-12-29T00:09:36;11.70;94.40
36424;DHT22;22458;45.328;9.514;2022-12-29T00:12:03;11.80;94.10
36424;DHT22;22458;45.328;9.514;2022-12-29T00:14:29;11.70;94.10
36424;DHT22;22458;45.328;9.514;2022-12-29T00:17:13;11.80;94.10
36424;DHT22;22458;45.328;9.514;2022-12-29T00:19:40;11.80;94.10
36424;DHT22;22458;45.328;9.514;2022-12-29T00:22:25;11.80;94.10
36424;DHT22;22458;45.328;9.514;2022-12-29T00:25:10;11.80;94.00
36424;DHT22;22458;45.328;9.514;2022-12-29T00:27:55;11.70;94.10
36424;DHT22;22458;45.328;9.514;2022-12-29T00:30:39;11.70;94.20
36424;DHT22;22458;45.328;9.514;2022-12-29T00:33:30;11.70;94.30
36424;DHT22;22458;45.328;9.514;2022-12-29T00:36:36;11.80;94.20
36424;DHT22;22458;45.328;9.514;2022-12-29T00:39:12;11.90;94.00
36424;DHT22;22458;45.328;9.514;2022-12-29T00:41:56;11.90;94.00
36424;DHT22;22458;45.328;9.514;2022-12-29T00:45:03;12.00;93.80
36424;DHT22;22458;45.328;9.514;2022-12-29T00:47:29;12.10;93.70
36424;DHT22;22458;45.328;9.514;2022-12-29T00:49:55;12.10;93.70
36424;DHT22;22458;45.328;9.514;2022-12-29T00:52:21;12.00;93.80
36424;DHT22;22458;45.328;9.514;2022-12-29T00:54:47;11.90;93.90
36424;DHT22;22458;45.328;9.514;2022-12-29T00:57:12;11.90;93.90
36424;DHT22;22458;45.328;9.514;2022-12-29T00:59:40;12.00;93.80
36424;DHT22;22458;45.328;9.514;2022-12-29T01:02:06;12.10;93.70
36424;DHT22;22458;45.328;9.514;2022-12-29T01:04:32;12.20;93.70
36424;DHT22;22458;45.328;9.514;2022-12-29T01:06:58;12.30;93.60
36424;DHT22;22458;45.328;9.514;2022-12-29T01:09:24;12.40;93.50
36424;DHT22;22458;45.328;9.514;2022-12-29T01:12:10;12.40;93.30
36424;DHT22;22458;45.328;9.514;2022-12-29T01:14:36;12.50;93.20
36424;DHT22;22458;45.328;9.514;2022-12-29T01:17:03;12.40;93.20
36424;DHT22;22458;45.328;9.514;2022-12-29T01:19:29;12.30;93.40
36424;DHT22;22458;45.328;9.514;2022-12-29T01:21:55;12.30;93.50
36424;DHT22;22458;45.328;9.514;2022-12-29T01:24:21;12.30;93.40
36424;DHT22;22458;45.328;9.514;2022-12-29T01:26:47;12.30;93.40
36424;DHT22;22458;45.328;9.514;2022-12-29T01:29:15;12.30;93.50
36424;DHT22;22458;45.328;9.514;2022-12-29T01:31:44;12.40;93.40
36424;DHT22;22458;45.328;9.514;2022-12-29T01:34:10;12.50;93.30
36424;DHT22;22458;45.328;9.514;2022-12-29T01:36:37;12.50;93.20
36424;DHT22;22458;45.328;9.514;2022-12-29T01:39:03;12.60;93.20
36424;DHT22;22458;45.328;9.514;2022-12-29T01:41:28;12.50;93.10
36424;DHT22;22458;45.328;9.514;2022-12-29T01:43:57;12.50;93.20
36424;DHT22;22458;45.328;9.514;2022-12-29T01:51:41;12.40;93.30
36424;DHT22;22458;45.328;9.514;2022-12-29T01:54:11;12.50;93.30
36424;DHT22;22458;45.328;9.514;2022-12-29T01:56:38;12.40;93.30
36424;DHT22;22458;45.328;9.514;2022-12-29T01:59:08;12.40;93.30
36424;DHT22;22458;45.328;9.514;2022-12-29T02:01:36;12.30;93.40
36424;DHT22;22458;45.328;9.514;2022-12-29T02:04:02;12.30;93.50
36424;DHT22;22458;45.328;9.514;2022-12-29T02:06:35;12.20;93.50
36424;DHT22;22458;45.328;9.514;2022-12-29T02:09:02;12.10;93.70
36424;DHT22;22458;45.328;9.514;2022-12-29T02:11:29;11.90;93.90
36424;DHT22;22458;45.328;9.514;2022-12-29T02:13:56;11.80;94.00
36424;DHT22;22458;45.328;9.514;2022-12-29T02:24:52;12.00;94.00
36424;DHT22;22458;45.328;9.514;2022-12-29T02:35:59;12.20;93.70
36424;DHT22;22458;45.328;9.514;2022-12-29T02:41:08;12.00;93.80
36424;DHT22;22458;45.328;9.514;2022-12-29T02:49:30;11.90;94.10
36424;DHT22;22458;45.328;9.514;2022-12-29T02:52:04;11.80;94.20
36424;DHT22;22458;45.328;9.514;2022-12-29T02:54:33;11.80;94.30
36424;DHT22;22458;45.328;9.514;2022-12-29T02:59:52;11.80;94.10
36424;DHT22;22458;45.328;9.514;2022-12-29T03:13:12;12.00;94.10
36424;DHT22;22458;45.328;9.514;2022-12-29T03:16:05;11.90;93.90
36424;DHT22;22458;45.328;9.514;2022-12-29T03:24:26;11.90;94.20
36424;DHT22;22458;45.328;9.514;2022-12-29T03:26:58;12.00;94.10
36424;DHT22;22458;45.328;9.514;2022-12-29T03:29:30;12.00;94.00
36424;DHT22;22458;45.328;9.514;2022-12-29T03:31:59;12.00;93.90
36424;DHT22;22458;45.328;9.514;2022-12-29T03:34:28;12.00;94.00
36424;DHT22;22458;45.328;9.514;2022-12-29T03:37:08;12.10;94.00
36424;DHT22;22458;45.328;9.514;2022-12-29T03:39:36;12.10;93.90
36424;DHT22;22458;45.328;9.514;2022-12-29T03:42:05;12.00;93.90
36424;DHT22;22458;45.328;9.514;2022-12-29T03:44:37;12.00;93.90
36424;DHT22;22458;45.328;9.514;2022-12-29T03:47:04;11.90;94.00
36424;DHT22;22458;45.328;9.514;2022-12-29T03:49:30;11.90;94.00
36424;DHT22;22458;45.328;9.514;2022-12-29T03:51:56;11.90;94.10
36424;DHT22;22458;45.328;9.514;2022-12-29T03:54:23;11.80;94.30
36424;DHT22;22458;45.328;9.514;2022-12-29T03:56:49;11.80;94.40
36424;DHT22;22458;45.328;9.514;2022-12-29T03:59:19;11.90;94.30
36424;DHT22;22458;45.328;9.514;2022-12-29T04:01:45;11.90;94.20
36424;DHT22;22458;45.328;9.514;2022-12-29T04:04:12;11.90;94.10
36424;DHT22;22458;45.328;9.514;2022-12-29T04:06:38;12.00;94.00
36424;DHT22;22458;45.328;9.514;2022-12-29T04:09:06;12.10;94.00
36424;DHT22;22458;45.328;9.514;2022-12-29T04:11:37;12.10;93.90
36424;DHT22;22458;45.328;9.514;2022-12-29T04:14:03;12.20;93.80
36424;DHT22;22458;45.328;9.514;2022-12-29T04:16:30;12.20;93.80
36424;DHT22;22458;45.328;9.514;2022-12-29T04:18:56;12.20;93.80
36424;DHT22;22458;45.328;9.514;2022-12-29T04:21:22;12.30;93.80
36424;DHT22;22458;45.328;9.514;2022-12-29T04:23:48;12.30;93.60
36424;DHT22;22458;45.328;9.514;2022-12-29T04:26:15;12.40;93.50
36424;DHT22;22458;45.328;9.514;2022-12-29T04:29:01;12.50;93.50
36424;DHT22;22458;45.328;9.514;2022-12-29T04:31:40;12.60;93.30
36424;DHT22;22458;45.328;9.514;2022-12-29T04:34:07;12.60;93.20
36424;DHT22;22458;45.328;9.514;2022-12-29T04:36:33;12.60;93.20
36424;DHT22;22458;45.328;9.514;2022-12-29T04:38:59;12.50;93.40
36424;DHT22;22458;45.328;9.514;2022-12-29T04:41:26;12.40;93.40
36424;DHT22;22458;45.328;9.514;2022-12-29T04:43:53;12.40;93.40
36424;DHT22;22458;45.328;9.514;2022-12-29T04:46:37;12.30;93.50
36424;DHT22;22458;45.328;9.514;2022-12-29T04:49:17;12.20;93.60
36424;DHT22;22458;45.328;9.514;2022-12-29T04:51:59;12.20;93.70
36424;DHT22;22458;45.328;9.514;2022-12-29T04:54:25;12.10;93.70
36424;DHT22;22458;45.328;9.514;2022-12-29T04:57:02;12.00;93.80
36424;DHT22;22458;45.328;9.514;2022-12-29T04:59:28;12.00;94.00
36424;DHT22;22458;45.328;9.514;2022-12-29T05:01:57;12.10;94.00
36424;DHT22;22458;45.328;9.514;2022-12-29T05:04:23;12.10;93.80
36424;DHT22;22458;45.328;9.514;2022-12-29T05:06:49;12.10;93.90
36424;DHT22;22458;45.328;9.514;2022-12-29T05:09:16;12.10;93.90
36424;DHT22;22458;45.328;9.514;2022-12-29T05:11:41;12.30;93.80
36424;DHT22;22458;45.328;9.514;2022-12-29T05:14:09;12.40;93.70
36424;DHT22;22458;45.328;9.514;2022-12-29T05:16:35;12.50;93.50
36424;DHT22;22458;45.328;9.514;2022-12-29T05:19:01;12.50;93.40
36424;DHT22;22458;45.328;9.514;2022-12-29T05:21:28;12.60;93.30
36424;DHT22;22458;45.328;9.514;2022-12-29T05:23:54;12.70;93.20
36424;DHT22;22458;45.328;9.514;2022-12-29T05:26:21;12.70;93.20
36424;DHT22;22458;45.328;9.514;2022-12-29T05:29:07;12.70;93.20
36424;DHT22;22458;45.328;9.514;2022-12-29T05:31:34;12.50;93.20
36424;DHT22;22458;45.328;9.514;2022-12-29T05:34:02;12.60;93.20
36424;DHT22;22458;45.328;9.514;2022-12-29T05:36:28;12.70;93.20
36424;DHT22;22458;45.328;9.514;2022-12-29T05:38:58;12.70;93.00
36424;DHT22;22458;45.328;9.514;2022-12-29T05:41:23;12.70;93.10
36424;DHT22;22458;45.328;9.514;2022-12-29T05:44:09;12.70;93.10
36424;DHT22;22458;45.328;9.514;2022-12-29T05:46:44;12.70;93.10
36424;DHT22;22458;45.328;9.514;2022-12-29T05:49:16;12.70;93.10
36424;DHT22;22458;45.328;9.514;2022-12-29T05:52:11;12.70;93.00
36424;DHT22;22458;45.328;9.514;2022-12-29T05:54:37;12.80;93.00
36424;DHT22;22458;45.328;9.514;2022-12-29T05:57:10;12.80;92.80
36424;DHT22;22458;45.328;9.514;2022-12-29T05:59:37;12.80;92.80
36424;DHT22;22458;45.328;9.514;2022-12-29T06:02:03;12.80;92.80
36424;DHT22;22458;45.328;9.514;2022-12-29T06:04:30;12.80;92.80
36424;DHT22;22458;45.328;9.514;2022-12-29T06:06:56;12.90;92.70
36424;DHT22;22458;45.328;9.514;2022-12-29T06:09:31;12.90;92.70
36424;DHT22;22458;45.328;9.514;2022-12-29T06:11:57;12.80;92.70
36424;DHT22;22458;45.328;9.514;2022-12-29T06:14:22;12.80;92.70
36424;DHT22;22458;45.328;9.514;2022-12-29T06:16:48;12.70;92.80
36424;DHT22;22458;45.328;9.514;2022-12-29T06:19:14;12.70;92.90
36424;DHT22;22458;45.328;9.514;2022-12-29T06:21:40;12.70;92.90
36424;DHT22;22458;45.328;9.514;2022-12-29T06:24:06;12.70;92.80
36424;DHT22;22458;45.328;9.514;2022-12-29T06:26:33;12.70;92.70
36424;DHT22;22458;45.328;9.514;2022-12-29T06:29:00;12.80;92.70
36424;DHT22;22458;45.328;9.514;2022-12-29T06:31:26;12.80;92.60
36424;DHT22;22458;45.328;9.514;2022-12-29T06:33:52;12.90;92.50
36424;DHT22;22458;45.328;9.514;2022-12-29T06:36:18;12.90;92.50
36424;DHT22;22458;45.328;9.514;2022-12-29T06:38:43;12.80;92.60
36424;DHT22;22458;45.328;9.514;2022-12-29T06:41:09;12.70;92.70
36424;DHT22;22458;45.328;9.514;2022-12-29T06:43:54;12.70;92.70
36424;DHT22;22458;45.328;9.514;2022-12-29T06:46:40;12.70;92.80
36424;DHT22;22458;45.328;9.514;2022-12-29T06:49:05;12.50;92.90
36424;DHT22;22458;45.328;9.514;2022-12-29T06:51:31;12.50;93.10
36424;DHT22;22458;45.328;9.514;2022-12-29T06:53:57;12.60;93.00
36424;DHT22;22458;45.328;9.514;2022-12-29T06:56:23;12.60;92.90
36424;DHT22;22458;45.328;9.514;2022-12-29T06:58:48;12.60;93.00
36424;DHT22;22458;45.328;9.514;2022-12-29T07:01:14;12.70;92.90
36424;DHT22;22458;45.328;9.514;2022-12-29T07:03:41;12.70;92.70
36424;DHT22;22458;45.328;9.514;2022-12-29T07:06:08;12.60;92.90
36424;DHT22;22458;45.328;9.514;2022-12-29T07:08:33;12.60;93.00
36424;DHT22;22458;45.328;9.514;2022-12-29T07:10:59;12.60;93.00
36424;DHT22;22458;45.328;9.514;2022-12-29T07:13:25;12.60;93.00
36424;DHT22;22458;45.328;9.514;2022-12-29T07:15:51;12.70;92.90
36424;DHT22;22458;45.328;9.514;2022-12-29T07:18:16;12.70;92.80
36424;DHT22;22458;45.328;9.514;2022-12-29T07:20:42;12.60;92.90
36424;DHT22;22458;45.328;9.514;2022-12-29T07:23:08;12.60;93.00
36424;DHT22;22458;45.328;9.514;2022-12-29T07:25:33;12.70;93.00
36424;DHT22;22458;45.328;9.514;2022-12-29T07:28:02;12.70;92.90
36424;DHT22;22458;45.328;9.514;2022-12-29T07:30:28;12.80;92.80
36424;DHT22;22458;45.328;9.514;2022-12-29T07:32:53;12.80;92.70
36424;DHT22;22458;45.328;9.514;2022-12-29T07:35:19;12.70;92.80
36424;DHT22;22458;45.328;9.514;2022-12-29T07:37:45;12.50;92.90
36424;DHT22;22458;45.328;9.514;2022-12-29T07:40:11;12.60;93.00
36424;DHT22;22458;45.328;9.514;2022-12-29T07:42:38;12.70;93.00
36424;DHT22;22458;45.328;9.514;2022-12-29T07:45:07;12.70;93.10
36424;DHT22;22458;45.328;9.514;2022-12-29T07:47:49;12.50;93.00
36424;DHT22;22458;45.328;9.514;2022-12-29T07:50:15;12.30;93.30
36424;DHT22;22458;45.328;9.514;2022-12-29T07:52:40;12.50;93.20
36424;DHT22;22458;45.328;9.514;2022-12-29T07:55:06;12.50;93.10
36424;DHT22;22458;45.328;9.514;2022-12-29T07:57:32;12.60;93.10
36424;DHT22;22458;45.328;9.514;2022-12-29T07:59:58;12.70;93.00
36424;DHT22;22458;45.328;9.514;2022-12-29T08:02:24;12.80;92.80
36424;DHT22;22458;45.328;9.514;2022-12-29T08:04:51;12.80;92.80
36424;DHT22;22458;45.328;9.514;2022-12-29T08:07:17;12.70;92.80
36424;DHT22;22458;45.328;9.514;2022-12-29T08:09:43;12.50;93.00
36424;DHT22;22458;45.328;9.514;2022-12-29T08:12:10;12.40;93.10
36424;DHT22;22458;45.328;9.514;2022-12-29T08:14:36;12.40;93.20
36424;DHT22;22458;45.328;9.514;2022-12-29T08:17:02;12.30;93.40
36424;DHT22;22458;45.328;9.514;2022-12-29T08:19:27;12.30;93.30
36424;DHT22;22458;45.328;9.514;2022-12-29T08:21:53;12.40;93.20
36424;DHT22;22458;45.328;9.514;2022-12-29T08:24:19;12.40;93.20
36424;DHT22;22458;45.328;9.514;2022-12-29T08:26:45;12.40;93.30
36424;DHT22;22458;45.328;9.514;2022-12-29T08:29:11;12.30;93.40
36424;DHT22;22458;45.328;9.514;2022-12-29T08:31:36;12.20;93.50
36424;DHT22;22458;45.328;9.514;2022-12-29T08:34:03;12.20;93.60
36424;DHT22;22458;45.328;9.514;2022-12-29T08:36:29;12.20;93.60
36424;DHT22;22458;45.328;9.514;2022-12-29T08:38:56;12.30;93.50
36424;DHT22;22458;45.328;9.514;2022-12-29T08:41:22;12.50;93.40
36424;DHT22;22458;45.328;9.514;2022-12-29T08:43:49;12.50;93.30
36424;DHT22;22458;45.328;9.514;2022-12-29T08:46:15;12.60;93.40
36424;DHT22;22458;45.328;9.514;2022-12-29T08:48:42;12.60;93.10
36424;DHT22;22458;45.328;9.514;2022-12-29T08:51:08;12.60;93.10
36424;DHT22;22458;45.328;9.514;2022-12-29T08:53:34;12.60;93.10
36424;DHT22;22458;45.328;9.514;2022-12-29T08:56:00;12.60;93.20
36424;DHT22;22458;45.328;9.514;2022-12-29T08:58:26;12.60;93.10
36424;DHT22;22458;45.328;9.514;2022-12-29T09:00:55;12.70;93.10
36424;DHT22;22458;45.328;9.514;2022-12-29T09:03:22;12.80;93.00
36424;DHT22;22458;45.328;9.514;2022-12-29T09:05:52;12.90;92.90
36424;DHT22;22458;45.328;9.514;2022-12-29T09:08:19;12.90;92.80
36424;DHT22;22458;45.328;9.514;2022-12-29T09:10:45;13.00;92.80
36424;DHT22;22458;45.328;9.514;2022-12-29T09:13:12;13.00;92.80
36424;DHT22;22458;45.328;9.514;2022-12-29T09:15:38;13.00;92.70
36424;DHT22;22458;45.328;9.514;2022-12-29T09:18:04;13.20;92.60
36424;DHT22;22458;45.328;9.514;2022-12-29T09:20:30;13.10;92.50
36424;DHT22;22458;45.328;9.514;2022-12-29T09:22:56;13.10;92.60
36424;DHT22;22458;45.328;9.514;2022-12-29T09:25:22;13.10;92.70
36424;DHT22;22458;45.328;9.514;2022-12-29T09:27:50;13.20;92.60
36424;DHT22;22458;45.328;9.514;2022-12-29T09:30:18;13.30;92.50
36424;DHT22;22458;45.328;9.514;2022-12-29T09:32:44;13.30;92.40
36424;DHT22;22458;45.328;9.514;2022-12-29T09:35:10;13.20;92.50
36424;DHT22;22458;45.328;9.514;2022-12-29T09:37:36;13.10;92.50
36424;DHT22;22458;45.328;9.514;2022-12-29T09:40:02;13.10;92.60
36424;DHT22;22458;45.328;9.514;2022-12-29T09:42:42;13.00;92.60
36424;DHT22;22458;45.328;9.514;2022-12-29T09:45:29;12.90;92.70
36424;DHT22;22458;45.328;9.514;2022-12-29T09:47:58;12.90;92.80
36424;DHT22;22458;45.328;9.514;2022-12-29T09:50:33;12.80;92.80
36424;DHT22;22458;45.328;9.514;2022-12-29T09:55:50;12.80;92.80
36424;DHT22;22458;45.328;9.514;2022-12-29T09:58:28;12.90;92.80
36424;DHT22;22458;45.328;9.514;2022-12-29T10:00:58;12.90;92.70
36424;DHT22;22458;45.328;9.514;2022-12-29T10:03:36;12.90;92.70
36424;DHT22;22458;45.328;9.514;2022-12-29T10:25:32;12.80;92.80
36424;DHT22;22458;45.328;9.514;2022-12-29T10:28:04;12.90;92.80
36424;DHT22;22458;45.328;9.514;2022-12-29T10:30:33;12.90;92.70
36424;DHT22;22458;45.328;9.514;2022-12-29T10:33:05;13.00;92.60
36424;DHT22;22458;45.328;9.514;2022-12-29T10:35:35;13.10;92.50
36424;DHT22;22458;45.328;9.514;2022-12-29T10:38:35;13.00;92.50
36424;DHT22;22458;45.328;9.514;2022-12-29T10:41:15;13.00;92.60
36424;DHT22;22458;45.328;9.514;2022-12-29T10:43:53;12.80;92.70
36424;DHT22;22458;45.328;9.514;2022-12-29T10:46:23;12.80;92.80
36424;DHT22;22458;45.328;9.514;2022-12-29T10:48:50;12.80;92.80
36424;DHT22;22458;45.328;9.514;2022-12-29T10:51:25;12.90;92.70
36424;DHT22;22458;45.328;9.514;2022-12-29T10:54:16;12.90;92.60
36424;DHT22;22458;45.328;9.514;2022-12-29T10:56:47;12.70;92.80
36424;DHT22;22458;45.328;9.514;2022-12-29T10:59:22;12.60;93.00
36424;DHT22;22458;45.328;9.514;2022-12-29T11:04:43;12.40;93.20
36424;DHT22;22458;45.328;9.514;2022-12-29T11:07:17;12.40;93.30
36424;DHT22;22458;45.328;9.514;2022-12-29T11:09:44;12.30;93.30
36424;DHT22;22458;45.328;9.514;2022-12-29T11:12:28;12.30;93.40
36424;DHT22;22458;45.328;9.514;2022-12-29T11:15:20;12.40;93.20
36424;DHT22;22458;45.328;9.514;2022-12-29T11:17:51;12.20;93.10
36424;DHT22;22458;45.328;9.514;2022-12-29T11:20:38;12.30;93.20
36424;DHT22;22458;45.328;9.514;2022-12-29T11:23:20;12.40;93.20
36424;DHT22;22458;45.328;9.514;2022-12-29T11:28:37;12.50;92.50
36424;DHT22;22458;45.328;9.514;2022-12-29T11:31:04;12.50;92.50
36424;DHT22;22458;45.328;9.514;2022-12-29T11:33:31;12.50;92.60
36424;DHT22;22458;45.328;9.514;2022-12-29T11:35:58;12.40;92.50
36424;DHT22;22458;45.328;9.514;2022-12-29T11:38:37;12.30;92.60
36424;DHT22;22458;45.328;9.514;2022-12-29T11:41:05;12.40;92.50
36424;DHT22;22458;45.328;9.514;2022-12-29T11:43:34;12.50;92.40
36424;DHT22;22458;45.328;9.514;2022-12-29T11:46:02;12.70;92.20
36424;DHT22;22458;45.328;9.514;2022-12-29T11:48:33;12.70;92.00
36424;DHT22;22458;45.328;9.514;2022-12-29T11:51:03;12.70;92.00
36424;DHT22;22458;45.328;9.514;2022-12-29T11:53:36;12.60;92.00
36424;DHT22;22458;45.328;9.514;2022-12-29T11:56:10;12.40;92.20
36424;DHT22;22458;45.328;9.514;2022-12-29T11:58:38;12.30;92.40
36424;DHT22;22458;45.328;9.514;2022-12-29T12:03:39;12.30;92.40
36424;DHT22;22458;45.328;9.514;2022-12-29T12:06:07;12.10;92.50
36424;DHT22;22458;45.328;9.514;2022-12-29T12:08:54;12.00;92.80
36424;DHT22;22458;45.328;9.514;2022-12-29T12:11:27;12.20;92.80
36424;DHT22;22458;45.328;9.514;2022-12-29T12:14:30;12.30;92.60
36424;DHT22;22458;45.328;9.514;2022-12-29T12:17:25;12.40;92.50
36424;DHT22;22458;45.328;9.514;2022-12-29T12:20:34;12.40;92.60
36424;DHT22;22458;45.328;9.514;2022-12-29T12:23:31;12.50;92.40
36424;DHT22;22458;45.328;9.514;2022-12-29T12:26:11;12.70;92.20
36424;DHT22;22458;45.328;9.514;2022-12-29T12:34:02;12.90;92.10
36424;DHT22;22458;45.328;9.514;2022-12-29T12:44:46;12.90;92.20
36424;DHT22;22458;45.328;9.514;2022-12-29T12:52:56;12.90;92.30
36424;DHT22;22458;45.328;9.514;2022-12-29T12:55:30;13.00;92.10
36424;DHT22;22458;45.328;9.514;2022-12-29T13:12:10;13.10;91.80
36424;DHT22;22458;45.328;9.514;2022-12-29T13:17:47;13.20;91.80
36424;DHT22;22458;45.328;9.514;2022-12-29T13:26:22;13.50;91.50
36424;DHT22;22458;45.328;9.514;2022-12-29T13:34:45;13.20;91.60
36424;DHT22;22458;45.328;9.514;2022-12-29T13:37:19;13.00;92.00
36424;DHT22;22458;45.328;9.514;2022-12-29T13:39:56;13.10;92.30
36424;DHT22;22458;45.328;9.514;2022-12-29T13:42:23;13.20;91.80
36424;DHT22;22458;45.328;9.514;2022-12-29T13:44:59;13.20;91.70
36424;DHT22;22458;45.328;9.514;2022-12-29T13:47:47;13.00;91.80
36424;DHT22;22458;45.328;9.514;2022-12-29T13:50:19;13.00;91.80
36424;DHT22;22458;45.328;9.514;2022-12-29T13:55:53;13.10;91.80
36424;DHT22;22458;45.328;9.514;2022-12-29T14:01:17;13.20;91.60
36424;DHT22;22458;45.328;9.514;2022-12-29T14:06:20;13.40;91.40
36424;DHT22;22458;45.328;9.514;2022-12-29T14:08:47;13.50;91.40
36424;DHT22;22458;45.328;9.514;2022-12-29T14:11:15;13.50;91.40
36424;DHT22;22458;45.328;9.514;2022-12-29T14:13:44;13.50;91.30
36424;DHT22;22458;45.328;9.514;2022-12-29T14:16:31;13.60;91.20
36424;DHT22;22458;45.328;9.514;2022-12-29T14:19:05;13.60;91.10
36424;DHT22;22458;45.328;9.514;2022-12-29T14:21:33;13.60;91.10
36424;DHT22;22458;45.328;9.514;2022-12-29T14:34:48;13.70;91.10
36424;DHT22;22458;45.328;9.514;2022-12-29T14:40:25;13.70;91.00
36424;DHT22;22458;45.328;9.514;2022-12-29T14:42:54;13.60;90.90
36424;DHT22;22458;45.328;9.514;2022-12-29T14:47:50;13.60;91.00
36424;DHT22;22458;45.328;9.514;2022-12-29T14:50:22;13.70;90.90
36424;DHT22;22458;45.328;9.514;2022-12-29T14:52:57;13.70;90.90
36424;DHT22;22458;45.328;9.514;2022-12-29T14:58:14;13.60;90.90
36424;DHT22;22458;45.328;9.514;2022-12-29T15:00:42;13.70;90.90
36424;DHT22;22458;45.328;9.514;2022-12-29T15:08:35;13.60;90.90
36424;DHT22;22458;45.328;9.514;2022-12-29T15:11:13;13.60;90.90
36424;DHT22;22458;45.328;9.514;2022-12-29T15:13:42;13.60;90.90
36424;DHT22;22458;45.328;9.514;2022-12-29T15:16:31;13.60;91.00
36424;DHT22;22458;45.328;9.514;2022-12-29T15:18:58;13.60;91.00
36424;DHT22;22458;45.328;9.514;2022-12-29T15:21:29;13.60;91.00
36424;DHT22;22458;45.328;9.514;2022-12-29T15:23:55;13.60;91.10
36424;DHT22;22458;45.328;9.514;2022-12-29T15:26:22;13.60;91.00
36424;DHT22;22458;45.328;9.514;2022-12-29T15:28:50;13.50;91.00
36424;DHT22;22458;45.328;9.514;2022-12-29T15:31:26;13.50;91.10
36424;DHT22;22458;45.328;9.514;2022-12-29T15:34:03;13.50;91.10
36424;DHT22;22458;45.328;9.514;2022-12-29T15:36:38;13.40;91.10
36424;DHT22;22458;45.328;9.514;2022-12-29T15:39:27;13.20;91.40
36424;DHT22;22458;45.328;9.514;2022-12-29T15:41:54;13.20;91.40
36424;DHT22;22458;45.328;9.514;2022-12-29T15:44:42;13.10;91.50
36424;DHT22;22458;45.328;9.514;2022-12-29T15:47:21;13.00;91.60
36424;DHT22;22458;45.328;9.514;2022-12-29T15:49:50;13.00;91.70
36424;DHT22;22458;45.328;9.514;2022-12-29T15:52:18;13.00;91.70
36424;DHT22;22458;45.328;9.514;2022-12-29T15:54:44;13.10;91.60
36424;DHT22;22458;45.328;9.514;2022-12-29T15:57:29;13.00;91.60
36424;DHT22;22458;45.328;9.514;2022-12-29T15:59:55;13.10;91.60
36424;DHT22;22458;45.328;9.514;2022-12-29T16:02:24;13.10;91.60
36424;DHT22;22458;45.328;9.514;2022-12-29T16:04:51;13.10;91.70
36424;DHT22;22458;45.328;9.514;2022-12-29T16:07:30;13.10;91.70
36424;DHT22;22458;45.328;9.514;2022-12-29T16:10:00;13.10;91.60
36424;DHT22;22458;45.328;9.514;2022-12-29T16:12:32;13.20;91.60
36424;DHT22;22458;45.328;9.514;2022-12-29T16:15:04;13.10;91.60
36424;DHT22;22458;45.328;9.514;2022-12-29T16:17:33;13.00;91.70
36424;DHT22;22458;45.328;9.514;2022-12-29T16:20:03;12.90;91.80
36424;DHT22;22458;45.328;9.514;2022-12-29T16:22:41;12.90;91.90
36424;DHT22;22458;45.328;9.514;2022-12-29T16:25:16;12.80;91.90
36424;DHT22;22458;45.328;9.514;2022-12-29T16:27:44;12.70;92.10
36424;DHT22;22458;45.328;9.514;2022-12-29T16:30:28;12.70;92.20
36424;DHT22;22458;45.328;9.514;2022-12-29T16:32:59;12.70;92.20
36424;DHT22;22458;45.328;9.514;2022-12-29T16:35:45;12.70;92.30
36424;DHT22;22458;45.328;9.514;2022-12-29T16:40:52;12.60;92.40
36424;DHT22;22458;45.328;9.514;2022-12-29T16:43:24;12.60;92.50
36424;DHT22;22458;45.328;9.514;2022-12-29T16:48:21;12.60;92.60
36424;DHT22;22458;45.328;9.514;2022-12-29T16:50:50;12.60;92.60
36424;DHT22;22458;45.328;9.514;2022-12-29T16:53:34;12.60;92.60
36424;DHT22;22458;45.328;9.514;2022-12-29T16:56:19;12.60;92.60
36424;DHT22;22458;45.328;9.514;2022-12-29T16:58:51;12.50;92.70
36424;DHT22;22458;45.328;9.514;2022-12-29T17:01:22;12.50;92.70
36424;DHT22;22458;45.328;9.514;2022-12-29T17:04:05;12.50;92.70
36424;DHT22;22458;45.328;9.514;2022-12-29T17:06:31;12.50;92.70
36424;DHT22;22458;45.328;9.514;2022-12-29T17:08:57;12.50;92.80
36424;DHT22;22458;45.328;9.514;2022-12-29T17:11:32;12.40;93.10
36424;DHT22;22458;45.328;9.514;2022-12-29T17:19:52;12.50;93.00
36424;DHT22;22458;45.328;9.514;2022-12-29T17:22:21;12.50;93.10
36424;DHT22;22458;45.328;9.514;2022-12-29T17:24:50;12.40;93.20
36424;DHT22;22458;45.328;9.514;2022-12-29T17:27:23;12.40;93.20
36424;DHT22;22458;45.328;9.514;2022-12-29T17:29:51;12.40;93.20
36424;DHT22;22458;45.328;9.514;2022-12-29T17:32:17;12.40;93.30
36424;DHT22;22458;45.328;9.514;2022-12-29T17:34:43;12.40;93.30
36424;DHT22;22458;45.328;9.514;2022-12-29T17:39:49;12.40;93.30
36424;DHT22;22458;45.328;9.514;2022-12-29T17:42:16;12.40;93.30
36424;DHT22;22458;45.328;9.514;2022-12-29T17:44:43;12.40;93.40
36424;DHT22;22458;45.328;9.514;2022-12-29T17:47:10;12.40;93.40
36424;DHT22;22458;45.328;9.514;2022-12-29T17:49:36;12.40;93.50
36424;DHT22;22458;45.328;9.514;2022-12-29T17:52:03;12.40;93.50
36424;DHT22;22458;45.328;9.514;2022-12-29T17:54:29;12.40;93.50
36424;DHT22;22458;45.328;9.514;2022-12-29T17:56:56;12.40;93.50
36424;DHT22;22458;45.328;9.514;2022-12-29T17:59:22;12.30;93.50
36424;DHT22;22458;45.328;9.514;2022-12-29T18:01:48;12.40;93.50
36424;DHT22;22458;45.328;9.514;2022-12-29T18:04:19;12.40;93.60
36424;DHT22;22458;45.328;9.514;2022-12-29T18:06:45;12.40;93.60
36424;DHT22;22458;45.328;9.514;2022-12-29T18:09:12;12.30;93.60
36424;DHT22;22458;45.328;9.514;2022-12-29T18:11:40;12.30;93.60
36424;DHT22;22458;45.328;9.514;2022-12-29T18:14:16;12.20;93.70
36424;DHT22;22458;45.328;9.514;2022-12-29T18:16:43;12.20;93.70
36424;DHT22;22458;45.328;9.514;2022-12-29T18:19:08;12.10;93.70
36424;DHT22;22458;45.328;9.514;2022-12-29T18:21:35;12.10;93.80
36424;DHT22;22458;45.328;9.514;2022-12-29T18:24:01;12.20;94.00
36424;DHT22;22458;45.328;9.514;2022-12-29T18:26:28;12.10;93.80
36424;DHT22;22458;45.328;9.514;2022-12-29T18:28:59;12.20;93.80
36424;DHT22;22458;45.328;9.514;2022-12-29T18:31:27;12.20;93.80
36424;DHT22;22458;45.328;9.514;2022-12-29T18:33:53;12.20;93.80
36424;DHT22;22458;45.328;9.514;2022-12-29T18:36:20;12.20;93.80
36424;DHT22;22458;45.328;9.514;2022-12-29T18:38:46;12.20;93.80
36424;DHT22;22458;45.328;9.514;2022-12-29T18:41:18;12.20;93.80
36424;DHT22;22458;45.328;9.514;2022-12-29T18:43:44;12.20;93.80
36424;DHT22;22458;45.328;9.514;2022-12-29T18:46:10;12.20;93.80
36424;DHT22;22458;45.328;9.514;2022-12-29T18:48:36;12.20;93.80